sensor_id;sensor_type;location;lat;lon;timestamp;pressure;altitude;pressure_sealevel;temperature;humidity
75991;BME280;64673;52.276;10.560;2023-08-21T00:00:28;101383.38;;;20.78;85.67
75991;BME280;64673;52.276;10.560;2023-08-21T00:02:53;101392.59;;;20.82;83.92
75991;BME280;64673;52.276;10.560;2023-08-21T00:05:18;101391.50;;;20.92;83.38
75991;BME280;64673;52.276;10.560;2023-08-21T00:07:44;101400.28;;;20.72;85.24
75991;BME280;64673;52.276;10.560;2023-08-21T00:10:10;101403.97;;;20.67;86.03
75991;BME280;64673;52.276;10.560;2023-08-21T00:12:37;101370.75;;;20.29;86.06
75991;BME280;64673;52.276;10.560;2023-08-21T00:15:03;101404.31;;;20.66;85.62
75991;BME280;64673;52.276;10.560;2023-08-21T00:17:29;101393.25;;;20.49;86.04
75991;BME280;64673;52.276;10.560;2023-08-21T00:19:54;101408.09;;;20.48;86.05
75991;BME280;64673;52.276;10.560;2023-08-21T00:22:19;101381.16;;;20.41;86.68
75991;BME280;64673;52.276;10.560;2023-08-21T00:24:45;101398.25;;;20.24;89.17
75991;BME280;64673;52.276;10.560;2023-08-21T00:27:10;101400.28;;;20.10;89.74
75991;BME280;64673;52.276;10.560;2023-08-21T00:29:35;101398.47;;;20.05;90.67
75991;BME280;64673;52.276;10.560;2023-08-21T00:32:01;101382.25;;;19.87;91.27
75991;BME280;64673;52.276;10.560;2023-08-21T00:34:26;101391.53;;;19.77;91.97
75991;BME280;64673;52.276;10.560;2023-08-21T00:36:52;101395.88;;;19.78;92.38
75991;BME280;64673;52.276;10.560;2023-08-21T00:39:17;101382.13;;;19.69;92.60
75991;BME280;64673;52.276;10.560;2023-08-21T00:41:42;101388.44;;;19.70;93.36
75991;BME280;64673;52.276;10.560;2023-08-21T00:44:08;101383.00;;;19.79;91.72
75991;BME280;64673;52.276;10.560;2023-08-21T00:46:34;101388.34;;;19.84;92.41
75991;BME280;64673;52.276;10.560;2023-08-21T00:48:59;101389.00;;;19.81;92.23
75991;BME280;64673;52.276;10.560;2023-08-21T00:51:24;101384.28;;;19.81;92.55
75991;BME280;64673;52.276;10.560;2023-08-21T00:53:50;101387.16;;;19.76;92.96
75991;BME280;64673;52.276;10.560;2023-08-21T00:56:15;101384.22;;;19.72;93.27
75991;BME280;64673;52.276;10.560;2023-08-21T00:58:42;101389.84;;;19.67;93.30
75991;BME280;64673;52.276;10.560;2023-08-21T01:01:07;101385.38;;;19.49;93.62
75991;BME280;64673;52.276;10.560;2023-08-21T01:03:33;101376.81;;;19.51;93.99
75991;BME280;64673;52.276;10.560;2023-08-21T01:05:58;101366.63;;;19.29;95.40
75991;BME280;64673;52.276;10.560;2023-08-21T01:08:42;101370.88;;;19.35;94.48
75991;BME280;64673;52.276;10.560;2023-08-21T01:11:21;101378.28;;;19.34;94.64
75991;BME280;64673;52.276;10.560;2023-08-21T01:13:56;101377.19;;;19.22;95.05
75991;BME280;64673;52.276;10.560;2023-08-21T01:16:24;101370.53;;;19.00;95.80
75991;BME280;64673;52.276;10.560;2023-08-21T01:18:50;101373.28;;;19.00;96.06
75991;BME280;64673;52.276;10.560;2023-08-21T01:21:16;101371.78;;;18.94;96.17
75991;BME280;64673;52.276;10.560;2023-08-21T01:23:41;101379.38;;;18.84;95.68
75991;BME280;64673;52.276;10.560;2023-08-21T01:26:08;101376.53;;;18.75;96.06
75991;BME280;64673;52.276;10.560;2023-08-21T01:28:34;101383.13;;;18.74;96.33
75991;BME280;64673;52.276;10.560;2023-08-21T01:31:07;101376.81;;;18.87;95.54
75991;BME280;64673;52.276;10.560;2023-08-21T01:33:35;101375.41;;;18.76;96.77
75991;BME280;64673;52.276;10.560;2023-08-21T01:36:03;101376.63;;;18.70;96.74
75991;BME280;64673;52.276;10.560;2023-08-21T01:38:34;101372.41;;;18.64;97.69
75991;BME280;64673;52.276;10.560;2023-08-21T01:41:01;101360.50;;;18.55;98.10
75991;BME280;64673;52.276;10.560;2023-08-21T01:43:27;101381.72;;;18.63;97.19
75991;BME280;64673;52.276;10.560;2023-08-21T01:45:52;101380.09;;;18.62;96.63
75991;BME280;64673;52.276;10.560;2023-08-21T01:48:18;101369.94;;;18.49;97.15
75991;BME280;64673;52.276;10.560;2023-08-21T01:50:43;101372.66;;;18.49;97.33
75991;BME280;64673;52.276;10.560;2023-08-21T01:53:08;101365.97;;;18.55;97.89
75991;BME280;64673;52.276;10.560;2023-08-21T01:55:34;101376.59;;;18.56;97.77
75991;BME280;64673;52.276;10.560;2023-08-21T01:57:59;101361.94;;;18.52;97.97
75991;BME280;64673;52.276;10.560;2023-08-21T02:00:24;101373.00;;;18.61;98.15
75991;BME280;64673;52.276;10.560;2023-08-21T02:02:50;101368.13;;;18.58;98.50
75991;BME280;64673;52.276;10.560;2023-08-21T02:05:15;101372.59;;;18.68;97.95
75991;BME280;64673;52.276;10.560;2023-08-21T02:07:40;101360.50;;;18.55;98.58
75991;BME280;64673;52.276;10.560;2023-08-21T02:10:06;101367.72;;;18.51;99.06
75991;BME280;64673;52.276;10.560;2023-08-21T02:12:31;101371.03;;;18.48;99.19
75991;BME280;64673;52.276;10.560;2023-08-21T02:14:57;101372.16;;;18.47;98.69
75991;BME280;64673;52.276;10.560;2023-08-21T02:17:25;101370.72;;;18.36;98.72
75991;BME280;64673;52.276;10.560;2023-08-21T02:19:51;101376.47;;;18.20;98.67
75991;BME280;64673;52.276;10.560;2023-08-21T02:22:16;101363.19;;;18.00;99.12
75991;BME280;64673;52.276;10.560;2023-08-21T02:24:41;101360.63;;;17.90;99.04
75991;BME280;64673;52.276;10.560;2023-08-21T02:27:07;101365.91;;;18.00;100.00
75991;BME280;64673;52.276;10.560;2023-08-21T02:29:32;101369.66;;;18.04;100.00
75991;BME280;64673;52.276;10.560;2023-08-21T02:31:57;101374.91;;;18.01;99.41
75991;BME280;64673;52.276;10.560;2023-08-21T02:34:24;101378.13;;;17.89;99.61
75991;BME280;64673;52.276;10.560;2023-08-21T02:36:49;101367.78;;;17.86;100.00
75991;BME280;64673;52.276;10.560;2023-08-21T02:39:14;101378.69;;;17.86;100.00
75991;BME280;64673;52.276;10.560;2023-08-21T02:41:40;101365.56;;;17.88;100.00
75991;BME280;64673;52.276;10.560;2023-08-21T02:44:05;101374.28;;;18.04;100.00
75991;BME280;64673;52.276;10.560;2023-08-21T02:46:31;101383.81;;;18.06;100.00
75991;BME280;64673;52.276;10.560;2023-08-21T02:48:58;101369.34;;;18.06;100.00
75991;BME280;64673;52.276;10.560;2023-08-21T02:51:23;101352.94;;;17.92;100.00
75991;BME280;64673;52.276;10.560;2023-08-21T02:53:49;101355.59;;;17.97;100.00
75991;BME280;64673;52.276;10.560;2023-08-21T02:56:14;101359.50;;;17.91;99.44
75991;BME280;64673;52.276;10.560;2023-08-21T02:58:39;101370.00;;;17.84;99.84
75991;BME280;64673;52.276;10.560;2023-08-21T03:01:05;101377.06;;;17.85;100.00
75991;BME280;64673;52.276;10.560;2023-08-21T03:03:30;101374.41;;;17.80;100.00
75991;BME280;64673;52.276;10.560;2023-08-21T03:05:57;101369.06;;;17.75;100.00
75991;BME280;64673;52.276;10.560;2023-08-21T03:08:22;101378.94;;;17.71;100.00
75991;BME280;64673;52.276;10.560;2023-08-21T03:10:48;101364.88;;;17.64;100.00
75991;BME280;64673;52.276;10.560;2023-08-21T03:13:13;101360.59;;;17.58;100.00
75991;BME280;64673;52.276;10.560;2023-08-21T03:15:38;101375.53;;;17.60;100.00
75991;BME280;64673;52.276;10.560;2023-08-21T03:18:04;101360.78;;;17.61;100.00
75991;BME280;64673;52.276;10.560;2023-08-21T03:20:29;101363.78;;;17.65;100.00
75991;BME280;64673;52.276;10.560;2023-08-21T03:22:54;101372.75;;;17.65;100.00
75991;BME280;64673;52.276;10.560;2023-08-21T03:25:20;101368.16;;;17.61;100.00
75991;BME280;64673;52.276;10.560;2023-08-21T03:27:45;101372.66;;;17.51;100.00
75991;BME280;64673;52.276;10.560;2023-08-21T03:30:14;101366.56;;;17.41;100.00
75991;BME280;64673;52.276;10.560;2023-08-21T03:32:40;101381.06;;;17.55;100.00
75991;BME280;64673;52.276;10.560;2023-08-21T03:35:05;101364.41;;;17.56;100.00
75991;BME280;64673;52.276;10.560;2023-08-21T03:37:30;101380.94;;;17.46;100.00
75991;BME280;64673;52.276;10.560;2023-08-21T03:39:56;101378.94;;;17.33;100.00
75991;BME280;64673;52.276;10.560;2023-08-21T03:42:21;101392.06;;;17.31;100.00
75991;BME280;64673;52.276;10.560;2023-08-21T03:44:46;101380.03;;;17.32;100.00
75991;BME280;64673;52.276;10.560;2023-08-21T03:47:15;101366.13;;;17.34;100.00
75991;BME280;64673;52.276;10.560;2023-08-21T03:49:42;101379.47;;;17.35;100.00
75991;BME280;64673;52.276;10.560;2023-08-21T03:52:07;101375.78;;;17.26;100.00
75991;BME280;64673;52.276;10.560;2023-08-21T03:54:32;101367.44;;;17.17;100.00
75991;BME280;64673;52.276;10.560;2023-08-21T03:56:58;101359.56;;;17.16;99.40
75991;BME280;64673;52.276;10.560;2023-08-21T03:59:23;101361.53;;;17.10;100.00
75991;BME280;64673;52.276;10.560;2023-08-21T04:01:52;101367.94;;;17.01;100.00
75991;BME280;64673;52.276;10.560;2023-08-21T04:04:17;101380.91;;;17.09;100.00
75991;BME280;64673;52.276;10.560;2023-08-21T04:06:43;101384.00;;;17.21;100.00
75991;BME280;64673;52.276;10.560;2023-08-21T04:09:08;101386.06;;;17.10;100.00
75991;BME280;64673;52.276;10.560;2023-08-21T04:11:33;101384.44;;;17.28;100.00
75991;BME280;64673;52.276;10.560;2023-08-21T04:13:59;101383.16;;;17.44;99.11
75991;BME280;64673;52.276;10.560;2023-08-21T04:16:24;101384.91;;;17.35;100.00
75991;BME280;64673;52.276;10.560;2023-08-21T04:18:50;101389.47;;;17.21;99.60
75991;BME280;64673;52.276;10.560;2023-08-21T04:21:15;101384.38;;;17.14;100.00
75991;BME280;64673;52.276;10.560;2023-08-21T04:23:40;101393.81;;;17.22;100.00
75991;BME280;64673;52.276;10.560;2023-08-21T04:26:06;101387.41;;;17.13;100.00
75991;BME280;64673;52.276;10.560;2023-08-21T04:28:33;101376.16;;;16.96;99.77
75991;BME280;64673;52.276;10.560;2023-08-21T04:30:58;101392.50;;;16.96;99.89
75991;BME280;64673;52.276;10.560;2023-08-21T04:33:33;101394.38;;;17.00;100.00
75991;BME280;64673;52.276;10.560;2023-08-21T04:35:59;101398.03;;;16.91;100.00
75991;BME280;64673;52.276;10.560;2023-08-21T04:38:25;101392.63;;;17.09;100.00
75991;BME280;64673;52.276;10.560;2023-08-21T04:40:50;101381.88;;;17.18;100.00
75991;BME280;64673;52.276;10.560;2023-08-21T04:43:16;101373.38;;;17.01;100.00
75991;BME280;64673;52.276;10.560;2023-08-21T04:45:51;101382.53;;;17.10;100.00
75991;BME280;64673;52.276;10.560;2023-08-21T04:48:20;101385.38;;;17.00;99.48
75991;BME280;64673;52.276;10.560;2023-08-21T04:50:46;101387.53;;;17.03;100.00
75991;BME280;64673;52.276;10.560;2023-08-21T04:53:12;101394.78;;;17.12;100.00
75991;BME280;64673;52.276;10.560;2023-08-21T04:55:37;101392.03;;;17.12;99.65
75991;BME280;64673;52.276;10.560;2023-08-21T04:58:05;101390.03;;;17.18;100.00
75991;BME280;64673;52.276;10.560;2023-08-21T05:00:31;101394.78;;;17.31;100.00
75991;BME280;64673;52.276;10.560;2023-08-21T05:02:56;101402.22;;;17.44;99.71
75991;BME280;64673;52.276;10.560;2023-08-21T05:05:21;101403.25;;;17.48;100.00
75991;BME280;64673;52.276;10.560;2023-08-21T05:07:47;101403.78;;;17.50;100.00
75991;BME280;64673;52.276;10.560;2023-08-21T05:10:12;101403.19;;;17.53;99.95
75991;BME280;64673;52.276;10.560;2023-08-21T05:12:37;101406.31;;;17.66;99.79
75991;BME280;64673;52.276;10.560;2023-08-21T05:15:03;101411.28;;;17.96;99.81
75991;BME280;64673;52.276;10.560;2023-08-21T05:17:28;101421.50;;;18.04;99.50
75991;BME280;64673;52.276;10.560;2023-08-21T05:19:54;101415.81;;;18.19;98.66
75991;BME280;64673;52.276;10.560;2023-08-21T05:22:20;101418.47;;;18.38;97.29
75991;BME280;64673;52.276;10.560;2023-08-21T05:24:45;101422.53;;;18.41;96.66
75991;BME280;64673;52.276;10.560;2023-08-21T05:27:11;101415.84;;;18.47;95.75
75991;BME280;64673;52.276;10.560;2023-08-21T05:29:36;101424.97;;;18.56;94.81
75991;BME280;64673;52.276;10.560;2023-08-21T05:32:01;101435.09;;;18.55;95.38
75991;BME280;64673;52.276;10.560;2023-08-21T05:34:27;101416.19;;;18.59;94.61
75991;BME280;64673;52.276;10.560;2023-08-21T05:36:53;101432.69;;;18.68;94.07
75991;BME280;64673;52.276;10.560;2023-08-21T05:39:19;101420.97;;;18.67;93.45
75991;BME280;64673;52.276;10.560;2023-08-21T05:41:45;101432.72;;;18.81;93.29
75991;BME280;64673;52.276;10.560;2023-08-21T05:44:10;101435.34;;;18.86;93.45
75991;BME280;64673;52.276;10.560;2023-08-21T05:46:36;101439.09;;;18.90;92.65
75991;BME280;64673;52.276;10.560;2023-08-21T05:49:01;101423.59;;;18.86;92.75
75991;BME280;64673;52.276;10.560;2023-08-21T05:51:26;101431.50;;;19.01;92.22
75991;BME280;64673;52.276;10.560;2023-08-21T05:53:52;101444.06;;;19.16;91.43
75991;BME280;64673;52.276;10.560;2023-08-21T05:56:17;101455.59;;;19.26;91.34
75991;BME280;64673;52.276;10.560;2023-08-21T05:58:42;101454.94;;;19.29;91.94
75991;BME280;64673;52.276;10.560;2023-08-21T06:01:08;101462.63;;;19.41;91.89
75991;BME280;64673;52.276;10.560;2023-08-21T06:03:33;101464.28;;;19.56;90.48
75991;BME280;64673;52.276;10.560;2023-08-21T06:05:58;101459.38;;;19.66;90.35
75991;BME280;64673;52.276;10.560;2023-08-21T06:08:24;101451.94;;;19.81;88.95
75991;BME280;64673;52.276;10.560;2023-08-21T06:10:52;101449.84;;;20.00;89.14
75991;BME280;64673;52.276;10.560;2023-08-21T06:13:18;101454.13;;;20.15;88.66
75991;BME280;64673;52.276;10.560;2023-08-21T06:15:44;101463.63;;;20.17;86.59
75991;BME280;64673;52.276;10.560;2023-08-21T06:18:10;101460.22;;;20.34;86.11
75991;BME280;64673;52.276;10.560;2023-08-21T06:20:36;101456.88;;;20.37;85.96
75991;BME280;64673;52.276;10.560;2023-08-21T06:23:01;101466.75;;;20.46;84.56
75991;BME280;64673;52.276;10.560;2023-08-21T06:25:26;101441.25;;;20.37;87.06
75991;BME280;64673;52.276;10.560;2023-08-21T06:27:52;101457.31;;;20.61;86.18
75991;BME280;64673;52.276;10.560;2023-08-21T06:30:17;101455.72;;;20.60;85.26
75991;BME280;64673;52.276;10.560;2023-08-21T06:32:43;101450.56;;;20.36;84.56
75991;BME280;64673;52.276;10.560;2023-08-21T06:35:09;101445.59;;;20.38;85.52
75991;BME280;64673;52.276;10.560;2023-08-21T06:37:34;101427.28;;;20.25;83.34
75991;BME280;64673;52.276;10.560;2023-08-21T06:39:59;101474.84;;;20.52;84.28
75991;BME280;64673;52.276;10.560;2023-08-21T06:42:25;101465.25;;;20.63;82.97
75991;BME280;64673;52.276;10.560;2023-08-21T06:44:50;101454.34;;;20.80;82.66
75991;BME280;64673;52.276;10.560;2023-08-21T06:47:15;101460.88;;;21.01;81.04
75991;BME280;64673;52.276;10.560;2023-08-21T06:49:41;101466.22;;;21.06;80.88
75991;BME280;64673;52.276;10.560;2023-08-21T06:52:06;101461.50;;;20.98;80.85
75991;BME280;64673;52.276;10.560;2023-08-21T06:54:31;101466.00;;;20.86;79.74
75991;BME280;64673;52.276;10.560;2023-08-21T06:56:57;101472.28;;;20.86;79.67
75991;BME280;64673;52.276;10.560;2023-08-21T06:59:23;101468.38;;;20.78;79.78
75991;BME280;64673;52.276;10.560;2023-08-21T07:01:49;101454.19;;;20.76;80.22
75991;BME280;64673;52.276;10.560;2023-08-21T07:04:16;101457.78;;;20.86;80.06
75991;BME280;64673;52.276;10.560;2023-08-21T07:06:41;101464.41;;;20.93;80.54
75991;BME280;64673;52.276;10.560;2023-08-21T07:09:06;101461.69;;;21.02;79.91
75991;BME280;64673;52.276;10.560;2023-08-21T07:11:32;101460.06;;;21.01;78.91
75991;BME280;64673;52.276;10.560;2023-08-21T07:13:57;101466.06;;;21.11;79.67
75991;BME280;64673;52.276;10.560;2023-08-21T07:16:23;101477.22;;;21.15;77.85
75991;BME280;64673;52.276;10.560;2023-08-21T07:18:48;101484.97;;;21.13;78.31
75991;BME280;64673;52.276;10.560;2023-08-21T07:21:13;101477.94;;;21.29;78.58
75991;BME280;64673;52.276;10.560;2023-08-21T07:23:39;101480.22;;;21.36;77.56
75991;BME280;64673;52.276;10.560;2023-08-21T07:26:04;101471.16;;;21.35;76.73
75991;BME280;64673;52.276;10.560;2023-08-21T07:28:32;101474.25;;;21.51;76.59
75991;BME280;64673;52.276;10.560;2023-08-21T07:30:57;101486.22;;;21.72;76.43
75991;BME280;64673;52.276;10.560;2023-08-21T07:33:24;101492.88;;;21.97;74.55
75991;BME280;64673;52.276;10.560;2023-08-21T07:36:02;101493.38;;;22.08;73.61
75991;BME280;64673;52.276;10.560;2023-08-21T07:38:28;101500.31;;;21.97;72.05
75991;BME280;64673;52.276;10.560;2023-08-21T07:41:08;101489.00;;;22.15;72.90
75991;BME280;64673;52.276;10.560;2023-08-21T07:43:35;101492.56;;;22.07;70.83
75991;BME280;64673;52.276;10.560;2023-08-21T07:46:05;101481.09;;;22.14;70.66
75991;BME280;64673;52.276;10.560;2023-08-21T07:48:31;101491.09;;;22.44;71.50
75991;BME280;64673;52.276;10.560;2023-08-21T07:50:56;101481.06;;;22.31;69.74
75991;BME280;64673;52.276;10.560;2023-08-21T07:53:23;101482.19;;;22.30;69.49
75991;BME280;64673;52.276;10.560;2023-08-21T07:55:48;101482.81;;;22.36;71.24
75991;BME280;64673;52.276;10.560;2023-08-21T07:58:14;101485.91;;;22.25;68.62
75991;BME280;64673;52.276;10.560;2023-08-21T08:00:40;101487.38;;;22.14;69.77
75991;BME280;64673;52.276;10.560;2023-08-21T08:03:06;101499.81;;;22.29;69.22
75991;BME280;64673;52.276;10.560;2023-08-21T08:05:32;101491.63;;;22.12;70.60
75991;BME280;64673;52.276;10.560;2023-08-21T08:07:58;101492.91;;;22.23;71.00
75991;BME280;64673;52.276;10.560;2023-08-21T08:10:24;101490.09;;;22.40;69.88
75991;BME280;64673;52.276;10.560;2023-08-21T08:12:50;101489.13;;;22.53;71.70
75991;BME280;64673;52.276;10.560;2023-08-21T08:15:16;101487.13;;;22.62;69.79
75991;BME280;64673;52.276;10.560;2023-08-21T08:17:41;101489.94;;;22.45;68.42
75991;BME280;64673;52.276;10.560;2023-08-21T08:20:07;101496.00;;;22.68;68.59
75991;BME280;64673;52.276;10.560;2023-08-21T08:22:32;101494.53;;;22.88;67.13
75991;BME280;64673;52.276;10.560;2023-08-21T08:24:57;101489.53;;;22.81;66.18
75991;BME280;64673;52.276;10.560;2023-08-21T08:27:23;101502.00;;;22.79;64.11
75991;BME280;64673;52.276;10.560;2023-08-21T08:29:49;101504.22;;;22.94;64.25
75991;BME280;64673;52.276;10.560;2023-08-21T08:32:14;101511.56;;;23.19;64.27
75991;BME280;64673;52.276;10.560;2023-08-21T08:34:40;101486.84;;;22.55;63.04
75991;BME280;64673;52.276;10.560;2023-08-21T08:37:05;101508.31;;;22.79;65.55
75991;BME280;64673;52.276;10.560;2023-08-21T08:39:30;101509.19;;;22.45;64.00
75991;BME280;64673;52.276;10.560;2023-08-21T08:42:03;101512.75;;;22.37;62.28
75991;BME280;64673;52.276;10.560;2023-08-21T08:44:30;101509.50;;;22.52;64.23
75991;BME280;64673;52.276;10.560;2023-08-21T08:46:55;101512.59;;;22.42;64.07
75991;BME280;64673;52.276;10.560;2023-08-21T08:49:22;101518.41;;;22.41;64.68
75991;BME280;64673;52.276;10.560;2023-08-21T08:51:49;101500.63;;;22.30;65.30
75991;BME280;64673;52.276;10.560;2023-08-21T08:54:16;101516.28;;;22.55;63.56
75991;BME280;64673;52.276;10.560;2023-08-21T08:56:41;101508.16;;;22.67;64.03
75991;BME280;64673;52.276;10.560;2023-08-21T08:59:07;101488.06;;;22.84;65.07
75991;BME280;64673;52.276;10.560;2023-08-21T09:01:34;101503.41;;;22.93;61.61
75991;BME280;64673;52.276;10.560;2023-08-21T09:04:00;101507.81;;;22.69;61.31
75991;BME280;64673;52.276;10.560;2023-08-21T09:06:26;101499.88;;;22.84;61.65
75991;BME280;64673;52.276;10.560;2023-08-21T09:08:56;101505.09;;;23.15;62.33
75991;BME280;64673;52.276;10.560;2023-08-21T09:11:22;101503.66;;;23.39;62.24
75991;BME280;64673;52.276;10.560;2023-08-21T09:13:51;101490.84;;;23.72;62.13
75991;BME280;64673;52.276;10.560;2023-08-21T09:16:18;101497.47;;;23.42;61.83
75991;BME280;64673;52.276;10.560;2023-08-21T09:18:52;101478.97;;;22.92;62.29
75991;BME280;64673;52.276;10.560;2023-08-21T09:21:18;101489.53;;;23.19;63.98
75991;BME280;64673;52.276;10.560;2023-08-21T09:23:44;101482.00;;;22.99;62.97
75991;BME280;64673;52.276;10.560;2023-08-21T09:26:10;101488.56;;;23.15;63.83
75991;BME280;64673;52.276;10.560;2023-08-21T09:28:37;101491.13;;;23.20;64.05
75991;BME280;64673;52.276;10.560;2023-08-21T09:31:02;101488.41;;;23.12;63.17
75991;BME280;64673;52.276;10.560;2023-08-21T09:33:28;101485.53;;;23.08;62.92
75991;BME280;64673;52.276;10.560;2023-08-21T09:35:54;101479.84;;;23.13;62.96
75991;BME280;64673;52.276;10.560;2023-08-21T09:38:20;101477.59;;;23.36;63.17
75991;BME280;64673;52.276;10.560;2023-08-21T09:40:53;101481.41;;;23.52;64.08
75991;BME280;64673;52.276;10.560;2023-08-21T09:43:20;101474.50;;;23.67;63.41
75991;BME280;64673;52.276;10.560;2023-08-21T09:45:47;101481.09;;;23.75;60.45
75991;BME280;64673;52.276;10.560;2023-08-21T09:48:13;101475.72;;;23.78;61.77
75991;BME280;64673;52.276;10.560;2023-08-21T09:50:39;101474.41;;;23.96;61.19
75991;BME280;64673;52.276;10.560;2023-08-21T09:53:09;101475.75;;;24.11;61.13
75991;BME280;64673;52.276;10.560;2023-08-21T09:55:35;101459.84;;;23.96;61.04
75991;BME280;64673;52.276;10.560;2023-08-21T09:58:01;101473.28;;;23.97;61.08
75991;BME280;64673;52.276;10.560;2023-08-21T10:00:35;101466.78;;;24.02;60.93
75991;BME280;64673;52.276;10.560;2023-08-21T10:03:02;101455.31;;;23.58;57.19
75991;BME280;64673;52.276;10.560;2023-08-21T10:05:32;101473.50;;;23.71;60.19
75991;BME280;64673;52.276;10.560;2023-08-21T10:08:00;101462.91;;;23.82;59.21
75991;BME280;64673;52.276;10.560;2023-08-21T10:10:29;101482.50;;;23.81;58.35
75991;BME280;64673;52.276;10.560;2023-08-21T10:12:54;101466.78;;;23.81;58.89
75991;BME280;64673;52.276;10.560;2023-08-21T10:15:20;101467.03;;;23.88;59.14
75991;BME280;64673;52.276;10.560;2023-08-21T10:17:45;101469.53;;;24.02;57.34
75991;BME280;64673;52.276;10.560;2023-08-21T10:20:11;101469.38;;;23.98;57.11
75991;BME280;64673;52.276;10.560;2023-08-21T10:22:43;101472.91;;;24.20;57.06
75991;BME280;64673;52.276;10.560;2023-08-21T10:25:20;101467.41;;;24.20;55.55
75991;BME280;64673;52.276;10.560;2023-08-21T10:27:50;101458.97;;;24.25;56.15
75991;BME280;64673;52.276;10.560;2023-08-21T10:30:20;101473.75;;;24.65;57.00
75991;BME280;64673;52.276;10.560;2023-08-21T10:32:50;101474.81;;;24.85;55.32
75991;BME280;64673;52.276;10.560;2023-08-21T10:35:21;101473.78;;;24.77;54.45
75991;BME280;64673;52.276;10.560;2023-08-21T10:40:32;101464.78;;;24.80;54.89
75991;BME280;64673;52.276;10.560;2023-08-21T10:42:58;101476.41;;;24.74;59.25
75991;BME280;64673;52.276;10.560;2023-08-21T10:45:24;101469.72;;;24.63;55.19
75991;BME280;64673;52.276;10.560;2023-08-21T10:47:49;101478.28;;;24.37;56.54
75991;BME280;64673;52.276;10.560;2023-08-21T10:50:15;101477.00;;;24.67;56.08
75991;BME280;64673;52.276;10.560;2023-08-21T10:52:42;101474.28;;;25.04;56.59
75991;BME280;64673;52.276;10.560;2023-08-21T10:55:11;101471.97;;;25.06;54.87
75991;BME280;64673;52.276;10.560;2023-08-21T10:57:37;101480.72;;;25.20;55.38
75991;BME280;64673;52.276;10.560;2023-08-21T11:00:05;101468.50;;;24.85;55.97
75991;BME280;64673;52.276;10.560;2023-08-21T11:02:35;101468.97;;;25.11;55.30
75991;BME280;64673;52.276;10.560;2023-08-21T11:05:01;101477.16;;;25.07;54.91
75991;BME280;64673;52.276;10.560;2023-08-21T11:07:28;101469.63;;;24.84;56.17
75991;BME280;64673;52.276;10.560;2023-08-21T11:09:54;101486.69;;;25.22;56.19
75991;BME280;64673;52.276;10.560;2023-08-21T11:12:23;101479.53;;;25.33;55.51
75991;BME280;64673;52.276;10.560;2023-08-21T11:14:49;101479.19;;;25.35;54.85
75991;BME280;64673;52.276;10.560;2023-08-21T11:17:15;101465.88;;;25.25;54.43
75991;BME280;64673;52.276;10.560;2023-08-21T11:19:42;101476.09;;;25.12;53.60
75991;BME280;64673;52.276;10.560;2023-08-21T11:22:07;101462.75;;;25.14;56.63
75991;BME280;64673;52.276;10.560;2023-08-21T11:24:43;101464.34;;;25.39;54.77
75991;BME280;64673;52.276;10.560;2023-08-21T11:27:09;101468.41;;;25.17;54.36
75991;BME280;64673;52.276;10.560;2023-08-21T11:29:40;101457.72;;;25.04;54.33
75991;BME280;64673;52.276;10.560;2023-08-21T11:34:35;101468.75;;;25.04;54.73
75991;BME280;64673;52.276;10.560;2023-08-21T11:37:01;101465.53;;;25.02;55.81
75991;BME280;64673;52.276;10.560;2023-08-21T11:39:26;101457.94;;;25.11;55.56
75991;BME280;64673;52.276;10.560;2023-08-21T11:41:58;101454.47;;;25.26;55.61
75991;BME280;64673;52.276;10.560;2023-08-21T11:44:24;101461.25;;;25.41;54.80
75991;BME280;64673;52.276;10.560;2023-08-21T11:46:52;101461.25;;;25.41;54.80
75991;BME280;64673;52.276;10.560;2023-08-21T11:49:20;101458.84;;;25.27;54.55
75991;BME280;64673;52.276;10.560;2023-08-21T11:51:47;101445.25;;;25.22;54.86
75991;BME280;64673;52.276;10.560;2023-08-21T11:54:13;101445.25;;;25.34;54.65
75991;BME280;64673;52.276;10.560;2023-08-21T11:56:39;101456.75;;;25.36;55.20
75991;BME280;64673;52.276;10.560;2023-08-21T11:59:06;101439.41;;;25.24;53.94
75991;BME280;64673;52.276;10.560;2023-08-21T12:01:35;101454.72;;;25.21;53.33
75991;BME280;64673;52.276;10.560;2023-08-21T12:04:00;101442.25;;;25.39;52.78
75991;BME280;64673;52.276;10.560;2023-08-21T12:06:25;101461.66;;;25.67;53.16
75991;BME280;64673;52.276;10.560;2023-08-21T12:08:52;101452.53;;;25.14;52.39
75991;BME280;64673;52.276;10.560;2023-08-21T12:11:18;101466.50;;;25.58;53.42
75991;BME280;64673;52.276;10.560;2023-08-21T12:13:43;101452.34;;;25.72;53.09
75991;BME280;64673;52.276;10.560;2023-08-21T12:16:09;101459.25;;;26.06;52.78
75991;BME280;64673;52.276;10.560;2023-08-21T12:18:34;101466.66;;;26.17;50.33
75991;BME280;64673;52.276;10.560;2023-08-21T12:20:59;101462.00;;;26.34;51.72
75991;BME280;64673;52.276;10.560;2023-08-21T12:23:25;101454.81;;;25.89;51.56
75991;BME280;64673;52.276;10.560;2023-08-21T12:25:50;101461.78;;;25.99;52.35
75991;BME280;64673;52.276;10.560;2023-08-21T12:28:16;101460.28;;;26.01;51.45
75991;BME280;64673;52.276;10.560;2023-08-21T12:30:41;101471.81;;;26.03;51.26
75991;BME280;64673;52.276;10.560;2023-08-21T12:33:07;101455.91;;;26.00;50.22
75991;BME280;64673;52.276;10.560;2023-08-21T12:35:32;101466.06;;;25.96;51.70
75991;BME280;64673;52.276;10.560;2023-08-21T12:37:58;101443.63;;;25.45;52.22